KOAK/OAK METAR and TAF weather

Enter ICAO airport designator
Station Type Date Time Source
KOAK METAR 2021/07/29 02:53 UTC NOAA

KOAK 290253Z 30011KT 10SM FEW006 BKN200 17/13 A2998 RMK AO2 SLP152 T01720128 55001


Station Type Date Time Source
KOAK Decoded METAR 2021/07/29 02:53 UTC NOAA

METRO OAKLAND INTERNATIONAL AIRPORT , CA, United States (KOAK) 37-43N 122-14W 26M
Jul 28, 2021 - 10:53 PM EDT / 2021.07.29 0253 UTC
Wind: from the WNW (300 degrees) at 13 MPH (11 KT):0
Visibility: 10 mile(s):0
Sky conditions: mostly cloudy
Temperature: 63.0 F (17.2 C)
Dew Point: 55.0 F (12.8 C)
Relative Humidity: 75%
Pressure (altimeter): 29.98 in. Hg (1015 hPa)
Pressure tendency: 0.00 inches (0.1 hPa) lower than three hours ago
ob: KOAK 290253Z 30011KT 10SM FEW006 BKN200 17/13 A2998 RMK AO2 SLP152 T01720128 55001
cycle: 3

Station Type Date Time Source
KOAK TAF 2021/07/28 18:34 UTC NOAA

TAF KOAK 281731Z 2818/2924 29007KT P6SM FEW200
FM282000 31014KT P6SM FEW200
FM290500 31007KT P6SM FEW008
FM290900 31005KT P6SM BKN009
FM291100 29004KT P6SM OVC007
FM291600 28005KT P6SM SCT008
FM292100 31014KT P6SM SKC

Example: see airport list